Time;durP1;ratioP1;P1;durP2;ratioP2;P2;SDS_P1;SDS_P2;PMS_P1;PMS_P2;Temp;Humidity;BMP_temperature;BMP_pressure;BME280_temperature;BME280_humidity;BME280_pressure;Samples;Min_cycle;Max_cycle;Signal;HPM_P1;HPM_P2
2023/04/14 00:00:38;;;;;;;1999.90;999.90;;;;;;;4.01;100.00;96423.72;5137324;27;20739;-83
2023/04/14 00:03:04;;;;;;;1999.90;999.90;;;;;;;3.99;100.00;96393.47;5133836;27;20031;-82
2023/04/14 00:05:31;;;;;;;1999.90;999.90;;;;;;;4.03;100.00;96405.31;5115015;27;20055;-84
2023/04/14 00:07:56;;;;;;;1999.90;999.90;;;;;;;4.16;100.00;96414.63;5115600;27;20031;-82
2023/04/14 00:10:22;;;;;;;1999.90;999.90;;;;;;;4.09;100.00;96431.22;5134557;27;20564;-80
2023/04/14 00:12:48;;;;;;;1999.90;999.90;;;;;;;4.03;100.00;96448.59;5132706;27;20106;-79
2023/04/14 00:15:14;;;;;;;1999.90;999.90;;;;;;;4.01;100.00;96450.78;5132519;27;20130;-80
2023/04/14 00:17:40;;;;;;;1999.90;999.90;;;;;;;3.83;100.00;96443.44;5132694;27;20030;-81
2023/04/14 00:20:06;;;;;;;1999.90;999.90;;;;;;;3.92;100.00;96460.63;5133514;27;20027;-82
2023/04/14 00:22:31;;;;;;;1999.90;999.90;;;;;;;3.71;100.00;96457.38;5133795;27;20112;-83
2023/04/14 00:24:56;;;;;;;1999.90;999.90;;;;;;;3.90;100.00;96454.72;5132939;27;20602;-82
2023/04/14 00:27:22;;;;;;;1999.90;999.90;;;;;;;3.88;100.00;96450.69;5134784;27;20026;-83
2023/04/14 00:29:48;;;;;;;1999.90;999.90;;;;;;;3.96;100.00;96441.94;5135709;27;20487;-84
2023/04/14 00:32:13;;;;;;;1999.90;999.90;;;;;;;3.87;100.00;96425.56;5116750;28;20630;-84
2023/04/14 00:34:39;;;;;;;1999.90;999.90;;;;;;;4.03;100.00;96420.75;5136034;28;20047;-84
2023/04/14 00:37:04;;;;;;;1999.90;999.90;;;;;;;4.16;100.00;96407.31;5116384;28;20538;-84
2023/04/14 00:39:30;;;;;;;1999.90;999.90;;;;;;;4.26;100.00;96412.56;5136773;28;20024;-81
2023/04/14 00:41:55;;;;;;;1999.90;999.90;;;;;;;4.13;100.00;96421.41;5133836;27;20034;-77
2023/04/14 00:44:21;;;;;;;1999.90;999.90;;;;;;;4.15;100.00;96419.22;5114201;27;20027;-79
2023/04/14 00:46:47;;;;;;;1999.90;999.90;;;;;;;4.14;100.00;96416.78;5132257;28;20132;-79
2023/04/14 00:49:14;;;;;;;1999.90;999.90;;;;;;;4.18;100.00;96401.59;5132135;28;20113;-77
2023/04/14 00:51:40;;;;;;;1999.90;999.90;;;;;;;4.24;100.00;96411.25;5113686;28;20035;-79
2023/04/14 00:54:08;;;;;;;1999.90;999.90;;;;;;;4.15;100.00;96418.41;5132231;28;20026;-78
2023/04/14 00:56:33;;;;;;;1999.90;999.90;;;;;;;4.12;100.00;96406.28;5132520;27;20027;-79
2023/04/14 00:59:00;;;;;;;1999.90;999.90;;;;;;;4.13;100.00;96398.97;5132918;28;20042;-84
2023/04/14 01:01:28;;;;;;;1999.90;999.90;;;;;;;4.08;100.00;96407.94;5133427;27;20502;-78
2023/04/14 01:03:54;;;;;;;1999.90;999.90;;;;;;;3.95;100.00;96397.84;5135345;27;20031;-82
2023/04/14 01:06:20;;;;;;;1999.90;999.90;;;;;;;4.11;100.00;96404.66;5137804;27;20471;-83
2023/04/14 01:08:47;;;;;;;1999.90;999.90;;;;;;;4.07;100.00;96398.22;5137503;27;20075;-85
2023/04/14 01:11:35;;;;;;;1999.90;999.90;;;;;;;4.05;100.00;96392.31;5139641;27;20051;-81
2023/04/14 01:14:30;;;;;;;1999.90;999.90;;;;;;;3.99;100.00;96404.28;5134816;28;20052;-84
2023/04/14 01:17:04;;;;;;;1999.90;999.90;;;;;;;3.99;100.00;96403.47;5134353;28;20027;-83
2023/04/14 01:19:45;;;;;;;1999.90;999.90;;;;;;;3.99;100.00;96406.19;5134413;27;20047;-82
2023/04/14 01:22:13;;;;;;;1999.90;999.90;;;;;;;4.08;100.00;96405.25;5115852;28;20480;-83
2023/04/14 01:24:38;;;;;;;1999.90;999.90;;;;;;;4.15;100.00;96415.69;5131693;28;20039;-80
2023/04/14 01:27:23;;;;;;;1999.90;999.90;;;;;;;4.19;100.00;96420.25;5113033;28;20019;-79
2023/04/14 01:30:06;;;;;;;1999.90;999.90;;;;;;;4.16;100.00;96409.22;5131958;28;20038;-81
2023/04/14 01:32:34;;;;;;;1999.90;999.90;;;;;;;4.15;100.00;96402.19;5131436;27;20027;-78
2023/04/14 01:35:08;;;;;;;1999.90;999.90;;;;;;;4.10;100.00;96411.16;5131933;28;20031;-78
2023/04/14 01:37:39;;;;;;;1999.90;999.90;;;;;;;3.79;100.00;96418.06;5131399;27;20051;-78
2023/04/14 01:40:11;;;;;;;1999.90;999.90;;;;;;;3.78;100.00;96420.00;5131114;28;20372;-80
2023/04/14 01:42:41;;;;;;;1999.90;999.90;;;;;;;3.88;100.00;96424.47;5132308;27;20046;-77
2023/04/14 01:45:17;;;;;;;1999.90;999.90;;;;;;;3.69;100.00;96435.25;5131614;28;20495;-80
2023/04/14 01:47:44;;;;;;;1999.90;999.90;;;;;;;3.79;100.00;96431.59;5132078;27;20086;-81
2023/04/14 01:50:11;;;;;;;1999.90;999.90;;;;;;;3.94;100.00;96434.13;5116761;27;20665;-81
2023/04/14 01:52:37;;;;;;;1999.90;999.90;;;;;;;4.10;100.00;96427.38;5117115;27;20468;-81
2023/04/14 01:55:05;;;;;;;1999.90;999.90;;;;;;;4.18;100.00;96412.41;5136302;27;20030;-79
2023/04/14 01:57:34;;;;;;;1999.90;999.90;;;;;;;4.17;100.00;96411.59;5141539;27;20031;-85
2023/04/14 02:00:01;;;;;;;1999.90;999.90;;;;;;;4.25;100.00;96420.97;5139625;27;20026;-83
2023/04/14 02:02:28;;;;;;;1999.90;999.90;;;;;;;4.21;100.00;96404.53;5137039;27;20019;-83
2023/04/14 02:04:56;;;;;;;1999.90;999.90;;;;;;;4.29;100.00;96403.84;5137585;27;20073;-82
2023/04/14 02:07:23;;;;;;;1999.90;999.90;;;;;;;4.23;100.00;96405.03;5134604;27;20039;-84
2023/04/14 02:09:50;;;;;;;1999.90;999.90;;;;;;;4.20;100.00;96389.38;5118665;27;20060;-82
2023/04/14 02:12:18;;;;;;;1999.90;999.90;;;;;;;4.29;100.00;96381.41;5116009;28;20027;-84
2023/04/14 02:14:45;;;;;;;1999.90;999.90;;;;;;;4.27;100.00;96351.94;5096347;28;20038;-79
2023/04/14 02:17:12;;;;;;;1999.90;999.90;;;;;;;4.34;100.00;96346.16;5119213;27;20027;-77
2023/04/14 02:19:40;;;;;;;1999.90;999.90;;;;;;;4.36;100.00;96337.72;5132166;27;20122;-80
2023/04/14 02:22:05;;;;;;;1999.90;999.90;;;;;;;4.30;100.00;96345.94;5134026;27;20035;-76
2023/04/14 02:24:31;;;;;;;1999.90;999.90;;;;;;;4.29;100.00;96333.50;5133659;27;20019;-76
2023/04/14 02:27:17;;;;;;;1999.90;999.90;;;;;;;4.26;100.00;96358.44;5115135;27;20027;-77
2023/04/14 02:29:48;;;;;;;1999.90;999.90;;;;;;;4.19;100.00;96379.66;5115454;27;20483;-76
2023/04/14 02:32:21;;;;;;;1999.90;999.90;;;;;;;3.97;100.00;96395.69;5134332;27;20590;-77
2023/04/14 02:35:17;;;;;;;1999.90;999.90;;;;;;;3.98;100.00;96396.47;5133936;27;20477;-77
2023/04/14 02:37:46;;;;;;;;;;;;;;;3.95;100.00;96408.66;5134060;27;20030;-77
2023/04/14 02:40:20;;;;;;;1999.90;999.90;;;;;;;3.90;100.00;96411.44;5133613;27;19919;-78
2023/04/14 02:42:51;;;;;;;1999.90;999.90;;;;;;;4.14;100.00;96395.97;5133678;27;20058;-76
2023/04/14 02:45:29;;;;;;;1999.90;999.90;;;;;;;4.11;100.00;96393.84;5133729;27;20030;-79
2023/04/14 02:48:00;;;;;;;1999.90;999.90;;;;;;;4.32;100.00;96397.06;5133841;27;20027;-77
2023/04/14 02:50:28;;;;;;;1999.90;999.90;;;;;;;4.30;100.00;96391.94;5133888;27;20054;-78
2023/04/14 02:52:55;;;;;;;1999.90;999.90;;;;;;;4.38;100.00;96400.50;5134724;27;20038;-76
2023/04/14 02:55:22;;;;;;;1999.90;999.90;;;;;;;4.32;100.00;96402.47;5135270;27;20043;-77
2023/04/14 02:57:49;;;;;;;1999.90;999.90;;;;;;;4.22;100.00;96379.09;5116119;27;20032;-79
2023/04/14 03:00:15;;;;;;;1999.90;999.90;;;;;;;4.28;100.00;96396.84;5132328;27;20038;-78
2023/04/14 03:02:43;;;;;;;1999.90;999.90;;;;;;;4.10;100.00;96383.31;5133672;27;20019;-78
2023/04/14 03:05:09;;;;;;;1999.90;999.90;;;;;;;3.98;100.00;96394.56;5116337;27;20372;-83
2023/04/14 03:07:36;;;;;;;1999.90;999.90;;;;;;;4.03;100.00;96380.16;5134150;27;20079;-78
2023/04/14 03:10:02;;;;;;;1999.90;999.90;;;;;;;4.11;100.00;96368.69;5134515;27;20523;-77
2023/04/14 03:12:28;;;;;;;1999.90;999.90;;;;;;;4.04;100.00;96379.09;5134555;27;20155;-79
2023/04/14 03:14:55;;;;;;;1999.90;999.90;;;;;;;3.97;100.00;96368.63;5135119;27;20492;-79
2023/04/14 03:17:21;;;;;;;1999.90;999.90;;;;;;;3.72;100.00;96374.38;5135625;27;20024;-80
2023/04/14 03:19:48;;;;;;;1999.90;999.90;;;;;;;3.90;100.00;96384.41;5136569;27;20035;-80
2023/04/14 03:22:16;;;;;;;1999.90;999.90;;;;;;;3.94;100.00;96382.75;5134160;27;20500;-82
2023/04/14 03:24:43;;;;;;;1999.90;999.90;;;;;;;3.92;100.00;96373.28;5133156;27;20080;-78
2023/04/14 03:27:13;;;;;;;1999.90;999.90;;;;;;;4.10;100.00;96367.88;5132867;27;20024;-77
2023/04/14 03:29:43;;;;;;;1999.90;999.90;;;;;;;4.14;100.00;96368.09;5132932;27;20023;-81
2023/04/14 03:32:10;;;;;;;1999.90;999.90;;;;;;;4.14;100.00;96382.44;5136858;27;20493;-82
2023/04/14 03:34:40;;;;;;;1999.90;999.90;;;;;;;4.02;100.00;96386.66;5137006;27;20033;-84
2023/04/14 03:37:07;;;;;;;1999.90;999.90;;;;;;;4.02;100.00;96381.25;5134242;27;20031;-79
2023/04/14 03:39:35;;;;;;;1999.90;999.90;;;;;;;3.97;100.00;96362.41;5132910;27;20075;-79
2023/04/14 03:42:02;;;;;;;1999.90;999.90;;;;;;;4.05;100.00;96353.63;5133274;27;20099;-76
2023/04/14 03:44:33;;;;;;;1999.90;999.90;;;;;;;4.19;100.00;96347.19;5111315;27;20480;-75
2023/04/14 03:47:02;;;;;;;1999.90;999.90;;;;;;;4.27;100.00;96368.16;5120647;27;20031;-75
2023/04/14 03:49:32;;;;;;;1999.90;999.90;;;;;;;4.24;100.00;96370.66;5112515;28;20028;-75
2023/04/14 03:52:01;;;;;;;1999.90;999.90;;;;;;;4.30;100.00;96383.00;5131043;27;20038;-76
2023/04/14 03:54:29;;;;;;;1999.90;999.90;;;;;;;4.22;100.00;96365.56;5132114;27;20130;-74
2023/04/14 03:56:57;;;;;;;1999.90;999.90;;;;;;;4.30;100.00;96362.16;5132356;27;20035;-74
2023/04/14 03:59:26;;;;;;;1999.90;999.90;;;;;;;4.31;100.00;96349.44;5132432;27;20083;-75
2023/04/14 04:01:53;;;;;;;1999.90;999.90;;;;;;;4.31;100.00;96347.53;5131954;27;20039;-74
2023/04/14 04:04:20;;;;;;;1999.90;999.90;;;;;;;4.39;100.00;96369.59;5131856;27;20026;-76
2023/04/14 04:06:45;;;;;;;1999.90;999.90;;;;;;;4.41;100.00;96364.72;5131933;27;20038;-75
2023/04/14 04:09:14;;;;;;;1999.90;999.90;;;;;;;4.49;100.00;96370.25;5131749;27;20035;-75
2023/04/14 04:11:42;;;;;;;1999.90;999.90;;;;;;;4.51;100.00;96372.69;5130874;27;20034;-75
2023/04/14 04:14:08;;;;;;;1999.90;999.90;;;;;;;4.45;100.00;96379.28;5132085;27;20023;-76
2023/04/14 04:16:35;;;;;;;1999.90;999.90;;;;;;;4.39;100.00;96391.25;5131812;27;20046;-74
2023/04/14 04:19:05;;;;;;;1999.90;999.90;;;;;;;4.24;100.00;96397.72;5112669;27;20038;-76
2023/04/14 04:21:34;;;;;;;1999.90;999.90;;;;;;;4.14;100.00;96395.97;5114982;27;20482;-75
2023/04/14 04:24:01;;;;;;;1999.90;999.90;;;;;;;4.10;100.00;96380.63;5113064;27;20027;-79
2023/04/14 04:26:26;;;;;;;1999.90;999.90;;;;;;;3.85;100.00;96327.69;5132845;27;20038;-81
2023/04/14 04:28:56;;;;;;;1999.90;999.90;;;;;;;4.28;100.00;96388.72;5130765;27;20291;-81
2023/04/14 04:31:22;;;;;;;1999.90;999.90;;;;;;;4.36;100.00;96383.72;5153900;27;20030;-82
2023/04/14 04:33:49;;;;;;;1999.90;999.90;;;;;;;4.35;100.00;96395.66;5151920;27;20034;-84
2023/04/14 04:36:15;;;;;;;1999.90;999.90;;;;;;;4.43;100.00;96381.47;5160598;27;20090;-84
2023/04/14 04:38:41;;;;;;;1999.90;999.90;;;;;;;4.37;100.00;96388.03;5156884;27;20029;-76
2023/04/14 04:41:07;;;;;;;1999.90;999.90;;;;;;;4.38;100.00;96390.47;5151365;27;20506;-76
2023/04/14 04:43:33;;;;;;;1999.90;999.90;;;;;;;4.57;100.00;96409.41;5151106;27;20058;-74
2023/04/14 04:46:20;;;;;;;1999.90;999.90;;;;;;;4.31;100.00;96407.09;5151283;27;20036;-77
2023/04/14 04:48:51;;;;;;;1999.90;999.90;;;;;;;4.48;100.00;96406.53;5150780;27;20467;-76
2023/04/14 04:51:16;;;;;;;1999.90;999.90;;;;;;;4.49;100.00;96412.75;5151084;27;20063;-74
2023/04/14 04:53:42;;;;;;;1999.90;999.90;;;;;;;4.43;100.00;96413.94;5131872;27;20042;-75
2023/04/14 04:56:07;;;;;;;1999.90;999.90;;;;;;;4.22;100.00;96422.38;5142950;27;20114;-75
2023/04/14 04:58:33;;;;;;;1999.90;999.90;;;;;;;4.24;100.00;96428.28;5129995;28;20027;-75
2023/04/14 05:00:58;;;;;;;1999.90;999.90;;;;;;;4.43;100.00;96424.75;5130221;28;20024;-75
2023/04/14 05:03:23;;;;;;;1999.90;999.90;;;;;;;4.47;100.00;96423.91;5130014;28;20378;-75
2023/04/14 05:05:49;;;;;;;1999.90;999.90;;;;;;;4.55;100.00;96434.03;5130547;27;20055;-76
2023/04/14 05:08:15;;;;;;;1999.90;999.90;;;;;;;4.32;100.00;96427.63;5138264;27;20011;-76
2023/04/14 05:10:40;;;;;;;1999.90;999.90;;;;;;;4.30;100.00;96435.22;5150980;27;20018;-77
2023/04/14 05:13:05;;;;;;;1999.90;999.90;;;;;;;4.35;100.00;96439.78;5154554;27;20038;-81
2023/04/14 05:15:31;;;;;;;1999.90;999.90;;;;;;;4.38;100.00;96450.03;5151027;27;20115;-75
2023/04/14 05:17:57;;;;;;;1999.90;999.90;;;;;;;4.28;100.00;96440.13;5151313;27;20033;-77
2023/04/14 05:20:23;;;;;;;1999.90;999.90;;;;;;;4.47;100.00;96444.75;5150628;27;20023;-78
2023/04/14 05:22:48;;;;;;;1999.90;999.90;;;;;;;4.52;100.00;96441.94;5169544;27;20095;-75
2023/04/14 05:25:14;;;;;;;1999.90;999.90;;;;;;;4.54;100.00;96437.84;5136755;27;20110;-77
2023/04/14 05:27:39;;;;;;;1999.90;999.90;;;;;;;4.60;100.00;96438.59;5158055;27;20019;-82
2023/04/14 05:30:06;;;;;;;1999.90;999.90;;;;;;;4.81;100.00;96448.81;5142715;27;20049;-77
2023/04/14 05:32:31;;;;;;;1999.90;999.90;;;;;;;4.91;100.00;96449.72;5133288;27;20105;-75
2023/04/14 05:34:56;;;;;;;1999.90;999.90;;;;;;;4.85;100.00;96449.78;5133029;27;20083;-76
2023/04/14 05:37:22;;;;;;;1999.90;999.90;;;;;;;4.84;100.00;96447.41;5133595;27;20076;-75
2023/04/14 05:39:47;;;;;;;1999.90;999.90;;;;;;;4.97;100.00;96457.47;5133919;27;20024;-76
2023/04/14 05:42:12;;;;;;;1999.90;999.90;;;;;;;4.92;100.00;96444.00;5133136;27;20395;-76
2023/04/14 05:44:38;;;;;;;1999.90;999.90;;;;;;;5.11;100.00;96452.88;5130697;27;20031;-75
2023/04/14 05:47:03;;;;;;;1999.90;999.90;;;;;;;5.04;100.00;96446.25;5133807;27;20039;-74
2023/04/14 05:49:30;;;;;;;1999.90;999.90;;;;;;;5.02;100.00;96459.28;5135953;27;20019;-80
2023/04/14 05:51:55;;;;;;;1999.90;999.90;;;;;;;5.07;100.00;96459.22;5135774;27;20024;-76
2023/04/14 05:54:21;;;;;;;1999.90;999.90;;;;;;;4.97;100.00;96449.34;5135741;27;20054;-79
2023/04/14 05:56:46;;;;;;;1999.90;999.90;;;;;;;5.05;100.00;96454.09;5136621;27;20020;-85
2023/04/14 05:59:12;;;;;;;1999.90;999.90;;;;;;;5.09;100.00;96451.59;5117214;27;20024;-83
2023/04/14 06:01:38;;;;;;;1999.90;999.90;;;;;;;5.07;100.00;96445.66;5136929;27;20125;-83
2023/04/14 06:04:04;;;;;;;1999.90;999.90;;;;;;;5.15;100.00;96443.06;5119449;27;20492;-82
2023/04/14 06:06:31;;;;;;;1999.90;999.90;;;;;;;5.17;100.00;96435.44;5137819;27;20148;-86
2023/04/14 06:08:57;;;;;;;1999.90;999.90;;;;;;;5.20;100.00;96431.34;5137578;27;20039;-83
2023/04/14 06:11:23;;;;;;;1999.90;999.90;;;;;;;5.12;100.00;96435.53;5136954;27;20015;-81
2023/04/14 06:13:49;;;;;;;1999.90;999.90;;;;;;;5.26;100.00;96444.50;5135755;27;20106;-81
2023/04/14 06:16:14;;;;;;;1999.90;999.90;;;;;;;5.26;100.00;96465.38;5137484;27;20106;-84
2023/04/14 06:18:40;;;;;;;1999.90;999.90;;;;;;;5.12;100.00;96459.13;5140605;27;20026;-82
2023/04/14 06:21:06;;;;;;;1999.90;999.90;;;;;;;5.09;100.00;96449.69;5140577;27;20048;-83
2023/04/14 06:23:32;;;;;;;1999.90;999.90;;;;;;;5.14;100.00;96441.44;5138600;27;20087;-84
2023/04/14 06:25:57;;;;;;;1999.90;999.90;;;;;;;5.31;100.00;96424.63;5118974;27;20051;-84
2023/04/14 06:28:24;;;;;;;1999.90;999.90;;;;;;;5.44;100.00;96420.31;5137578;27;20031;-85
2023/04/14 06:30:50;;;;;;;1999.90;999.90;;;;;;;5.55;100.00;96430.66;5137931;27;20027;-83
2023/04/14 06:33:15;;;;;;;1999.90;999.90;;;;;;;5.66;100.00;96420.44;5120344;28;20079;-88
2023/04/14 06:35:42;;;;;;;1999.90;999.90;;;;;;;5.72;100.00;96405.66;5139883;27;20019;-89
2023/04/14 06:38:07;;;;;;;1999.90;999.90;;;;;;;5.61;100.00;96407.75;5125977;27;20031;-87
2023/04/14 06:40:33;;;;;;;1999.90;999.90;;;;;;;5.53;100.00;96423.94;5145463;27;20034;-85
2023/04/14 06:42:58;;;;;;;1999.90;999.90;;;;;;;5.67;100.00;96427.47;5142312;27;20027;-84
2023/04/14 06:45:24;;;;;;;1999.90;999.90;;;;;;;5.66;100.00;96426.66;5146132;27;20076;-85
2023/04/14 06:47:49;;;;;;;1999.90;999.90;;;;;;;5.69;100.00;96420.63;5147217;27;20035;-85
2023/04/14 06:50:15;;;;;;;1999.90;999.90;;;;;;;5.64;100.00;96417.22;5146423;27;20403;-81
2023/04/14 06:52:40;;;;;;;1999.90;999.90;;;;;;;5.39;100.00;96400.34;5146565;27;20031;-84
2023/04/14 06:55:06;;;;;;;1999.90;999.90;;;;;;;5.46;100.00;96426.25;5125110;27;20579;-85
2023/04/14 06:57:31;;;;;;;1999.90;999.90;;;;;;;5.44;100.00;96417.63;5136809;27;20364;-81
2023/04/14 06:59:57;;;;;;;1999.90;999.90;;;;;;;5.40;100.00;96415.50;5135892;27;20192;-80
2023/04/14 07:02:22;;;;;;;1999.90;999.90;;;;;;;5.39;100.00;96424.72;5135657;27;20015;-81
2023/04/14 07:04:47;;;;;;;1999.90;999.90;;;;;;;5.55;100.00;96425.25;5135754;27;20110;-85
2023/04/14 07:07:14;;;;;;;1999.90;999.90;;;;;;;5.68;100.00;96420.94;5135706;27;20042;-83
2023/04/14 07:09:42;;;;;;;1999.90;999.90;;;;;;;5.69;100.00;96425.25;5135659;27;20074;-83
2023/04/14 07:12:14;;;;;;;1999.90;999.90;;;;;;;5.61;100.00;96406.97;5135619;27;20031;-85
2023/04/14 07:14:40;;;;;;;1999.90;999.90;;;;;;;5.90;100.00;96423.75;5135200;27;20026;-82
2023/04/14 07:17:05;;;;;;;1999.90;999.90;;;;;;;5.63;100.00;96404.78;5135623;27;20019;-84
2023/04/14 07:19:31;;;;;;;1999.90;999.90;;;;;;;5.97;100.00;96442.34;5135365;27;20027;-85
2023/04/14 07:21:57;;;;;;;1999.90;999.90;;;;;;;5.91;100.00;96433.53;5135644;27;20114;-82
2023/04/14 07:24:22;;;;;;;1999.90;999.90;;;;;;;5.95;100.00;96431.81;5135706;27;20091;-82
2023/04/14 07:26:47;;;;;;;1999.90;999.90;;;;;;;5.73;100.00;96431.69;5134601;27;20467;-82
2023/04/14 07:29:13;;;;;;;1999.90;999.90;;;;;;;5.78;100.00;96437.81;5136033;27;20125;-83
2023/04/14 07:31:38;;;;;;;1999.90;999.90;;;;;;;5.97;100.00;96432.31;5136012;27;20019;-78
2023/04/14 07:34:04;;;;;;;1999.90;999.90;;;;;;;5.96;100.00;96429.88;5121027;27;20150;-81
2023/04/14 07:36:31;;;;;;;1999.90;999.90;;;;;;;5.81;100.00;96449.97;5138585;27;20080;-82
2023/04/14 07:38:56;;;;;;;1999.90;999.90;;;;;;;5.66;100.00;96442.13;5134154;27;20019;-81
2023/04/14 07:41:22;;;;;;;1999.90;999.90;;;;;;;5.65;100.00;96452.19;5134399;27;20037;-83
2023/04/14 07:43:48;;;;;;;1999.90;999.90;;;;;;;5.78;100.00;96453.28;5134033;27;20034;-79
2023/04/14 07:46:13;;;;;;;1999.90;999.90;;;;;;;5.72;100.00;96449.06;5133528;27;20027;-82
2023/04/14 07:48:39;;;;;;;1999.90;999.90;;;;;;;5.56;100.00;96461.31;5134685;27;20326;-82
2023/04/14 07:51:04;;;;;;;1999.90;999.90;;;;;;;5.76;100.00;96469.06;5133891;27;20027;-83
2023/04/14 07:53:31;;;;;;;1999.90;999.90;;;;;;;5.92;100.00;96468.47;5116414;27;20031;-79
2023/04/14 07:55:57;;;;;;;1999.90;999.90;;;;;;;5.88;100.00;96466.69;5135613;27;20122;-79
2023/04/14 07:58:25;;;;;;;1999.90;999.90;;;;;;;5.86;100.00;96460.72;5136079;27;20064;-80
2023/04/14 08:00:50;;;;;;;1999.90;999.90;;;;;;;5.86;100.00;96468.88;5135712;27;20372;-83
2023/04/14 08:03:16;;;;;;;1999.90;999.90;;;;;;;5.99;100.00;96469.97;5133981;27;20102;-84
2023/04/14 08:05:41;;;;;;;1999.90;999.90;;;;;;;5.95;100.00;96483.38;5132920;27;20027;-81
2023/04/14 08:08:08;;;;;;;1999.90;999.90;;;;;;;6.26;100.00;96484.34;5132781;27;20019;-79
2023/04/14 08:10:34;;;;;;;1999.90;999.90;;;;;;;6.23;100.00;96474.09;5132825;27;20034;-79
2023/04/14 08:13:00;;;;;;;1999.90;999.90;;;;;;;6.24;100.00;96494.69;5133328;27;20023;-83
2023/04/14 08:15:25;;;;;;;1999.90;999.90;;;;;;;6.07;100.00;96489.09;5132734;27;20024;-77
2023/04/14 08:17:51;;;;;;;1999.90;999.90;;;;;;;6.20;100.00;96499.09;5114641;27;20376;-81
2023/04/14 08:20:16;;;;;;;1999.90;999.90;;;;;;;6.42;100.00;96511.97;5114070;27;20027;-84
2023/04/14 08:22:42;;;;;;;1999.90;999.90;;;;;;;6.33;100.00;96495.56;5132496;27;20019;-81
2023/04/14 08:25:10;;;;;;;1999.90;999.90;;;;;;;6.45;100.00;96482.28;5132707;27;20114;-82
2023/04/14 08:27:36;;;;;;;1999.90;999.90;;;;;;;6.48;100.00;96489.81;5132778;27;20018;-88
2023/04/14 08:30:02;;;;;;;1999.90;999.90;;;;;;;6.40;100.00;96495.97;5114991;27;20094;-82
2023/04/14 08:32:27;;;;;;;1999.90;999.90;;;;;;;6.53;100.00;96494.34;5132809;27;20031;-81
2023/04/14 08:34:53;;;;;;;1999.90;999.90;;;;;;;6.57;100.00;96489.91;5133246;27;20031;-84
2023/04/14 08:37:21;;;;;;;1999.90;999.90;;;;;;;6.67;100.00;96518.78;5132907;28;20027;-83
2023/04/14 08:39:47;;;;;;;1999.90;999.90;;;;;;;6.30;100.00;96525.25;5133445;27;20027;-81
2023/04/14 08:42:15;;;;;;;1999.90;999.90;;;;;;;6.25;100.00;96531.59;5132550;28;20038;-79
2023/04/14 08:44:41;;;;;;;1999.90;999.90;;;;;;;5.82;100.00;96535.69;5114672;28;20027;-78
2023/04/14 08:47:07;;;;;;;1999.90;999.90;;;;;;;6.00;100.00;96534.00;5133230;27;20034;-81
2023/04/14 08:50:00;;;;;;;1999.90;999.90;;;;;;;6.17;100.00;96532.28;5133627;28;20031;-80
2023/04/14 08:52:27;;;;;;;1999.90;999.90;;;;;;;6.12;100.00;96534.31;5123853;28;20399;-79
2023/04/14 08:54:55;;;;;;;1999.90;999.90;;;;;;;6.25;100.00;96531.59;5113314;28;20386;-81
2023/04/14 08:57:21;;;;;;;1999.90;999.90;;;;;;;6.14;100.00;96535.59;5133810;27;20028;-84
2023/04/14 08:59:47;;;;;;;1999.90;999.90;;;;;;;6.20;100.00;96534.41;5135872;27;20035;-80
2023/04/14 09:02:14;;;;;;;1999.90;999.90;;;;;;;6.33;100.00;96549.88;5135464;27;20050;-81
2023/04/14 09:04:41;;;;;;;1999.90;999.90;;;;;;;6.23;100.00;96538.44;5118266;27;20027;-79
2023/04/14 09:07:07;;;;;;;1999.90;999.90;;;;;;;6.09;100.00;96514.00;5137050;27;20364;-81
2023/04/14 09:09:33;;;;;;;1999.90;999.90;;;;;;;6.39;100.00;96540.53;5117379;27;20077;-82
2023/04/14 09:12:01;;;;;;;1999.90;999.90;;;;;;;6.63;100.00;96547.66;5136810;27;20070;-84
2023/04/14 09:14:27;;;;;;;1999.90;999.90;;;;;;;6.72;100.00;96538.47;5120230;27;20066;-85
2023/04/14 09:16:55;;;;;;;1999.90;999.90;;;;;;;7.02;100.00;96544.34;5137683;27;20062;-84
2023/04/14 09:19:21;;;;;;;1999.90;999.90;;;;;;;7.33;100.00;96553.38;5141086;27;20026;-90
2023/04/14 09:21:47;;;;;;;1999.90;999.90;;;;;;;7.55;100.00;96558.78;5138053;27;20388;-81
2023/04/14 09:24:16;;;;;;;1999.90;999.90;;;;;;;7.36;100.00;96553.53;5138311;27;20019;-83
2023/04/14 09:26:42;;;;;;;1999.90;999.90;;;;;;;7.32;100.00;96571.63;5135680;27;20391;-79
2023/04/14 09:29:07;;;;;;;1999.90;999.90;;;;;;;7.46;100.00;96583.22;5135805;27;20038;-79
2023/04/14 09:31:33;;;;;;;1999.90;999.90;;;;;;;7.42;100.00;96576.00;5117841;27;20114;-85
2023/04/14 09:33:59;;;;;;;1999.90;999.90;;;;;;;7.31;100.00;96575.44;5120561;27;20027;-84
2023/04/14 09:36:26;;;;;;;1999.90;999.90;;;;;;;7.58;100.00;96579.16;5139241;27;20424;-83
2023/04/14 09:38:52;;;;;;;1999.90;999.90;;;;;;;7.60;100.00;96583.16;5138586;27;20045;-85
2023/04/14 09:41:21;;;;;;;1999.90;999.90;;;;;;;7.69;100.00;96580.50;5139498;27;20486;-81
2023/04/14 09:43:47;;;;;;;1999.90;999.90;;;;;;;7.87;100.00;96571.31;5138212;27;20019;-84
2023/04/14 09:46:14;;;;;;;1999.90;999.90;;;;;;;7.85;100.00;96579.00;5118331;27;20412;-83
2023/04/14 09:48:55;;;;;;;1999.90;999.90;;;;;;;7.87;100.00;96572.13;5137134;27;20079;-84
2023/04/14 09:51:28;;;;;;;1999.90;999.90;;;;;;;7.68;100.00;96576.97;5136645;27;20114;-82
2023/04/14 09:53:59;;;;;;;1999.90;999.90;;;;;;;7.96;100.00;96585.78;5136188;27;20491;-84
2023/04/14 09:56:27;;;;;;;1999.90;999.90;;;;;;;8.32;100.00;96588.41;5135477;27;20023;-84
2023/04/14 09:58:57;;;;;;;1999.90;999.90;;;;;;;8.38;100.00;96582.50;5118137;27;20074;-87
2023/04/14 10:01:22;;;;;;;1999.90;999.90;;;;;;;8.75;100.00;96572.16;5137258;27;20026;-84
2023/04/14 10:03:49;;;;;;;1999.90;999.90;;;;;;;8.73;100.00;96577.94;5136081;27;20077;-79
2023/04/14 10:06:19;;;;;;;1999.90;999.90;;;;;;;8.89;100.00;96576.38;5138527;27;20089;-84
2023/04/14 10:08:50;;;;;;;1999.90;999.90;;;;;;;8.91;100.00;96578.78;5136784;27;20036;-82
2023/04/14 10:11:28;;;;;;;1999.90;999.90;;;;;;;8.88;100.00;96582.16;5135530;27;20091;-82
2023/04/14 10:13:59;;;;;;;1999.90;999.90;;;;;;;9.21;100.00;96579.78;5137588;27;20094;-84
2023/04/14 10:16:25;;;;;;;1999.90;999.90;;;;;;;9.94;100.00;96582.28;5143308;27;20031;-83
2023/04/14 10:18:54;;;;;;;1999.90;999.90;;;;;;;10.27;100.00;96570.81;5141414;27;20059;-84
2023/04/14 10:21:21;;;;;;;1999.90;999.90;;;;;;;10.89;100.00;96574.53;5137724;27;20034;-81
2023/04/14 10:23:47;;;;;;;1999.90;999.90;;;;;;;11.25;100.00;96579.41;5136505;27;20547;-80
2023/04/14 10:26:14;;;;;;;1999.90;999.90;;;;;;;10.97;100.00;96575.59;5135501;27;20068;-88
2023/04/14 10:28:43;;;;;;;1999.90;999.90;;;;;;;11.06;100.00;96577.13;5137067;27;20148;-81
2023/04/14 10:31:25;;;;;;;1999.90;999.90;;;;;;;10.69;100.00;96578.81;5136123;27;20038;-84
2023/04/14 10:33:51;;;;;;;1999.90;999.90;;;;;;;10.45;100.00;96584.09;5136125;27;20027;-86
2023/04/14 10:36:28;;;;;;;1999.90;999.90;;;;;;;10.78;100.00;96570.56;5137479;27;20487;-79
2023/04/14 10:38:59;;;;;;;1999.90;999.90;;;;;;;11.11;100.00;96567.94;5120033;27;20075;-84
2023/04/14 10:41:25;;;;;;;1999.90;999.90;;;;;;;10.90;100.00;96578.06;5140791;27;20027;-81
2023/04/14 10:43:50;;;;;;;1999.90;999.90;;;;;;;10.79;100.00;96563.16;5138106;27;20029;-80
2023/04/14 10:46:16;;;;;;;1999.90;999.90;;;;;;;11.00;100.00;96566.72;5136677;27;20027;-77
2023/04/14 10:48:45;;;;;;;1999.90;999.90;;;;;;;11.28;100.00;96565.06;5136571;27;20038;-87
2023/04/14 10:51:11;;;;;;;1999.90;999.90;;;;;;;11.53;100.00;96555.03;5137794;27;20112;-82
2023/04/14 10:53:43;;;;;;;1999.90;999.90;;;;;;;11.19;100.00;96548.72;5138292;27;20027;-82
2023/04/14 10:56:10;;;;;;;1999.90;999.90;;;;;;;10.69;100.00;96551.47;5139474;27;20078;-86